Flight Number: AVA1009 Duration: 1:15
Departure: Bruxelles National (EBBR) at 13:30 Distance: 190.367 Nm
Arrival: London Luton (EGGW) at 14:45 Equipment: B1900D

Weather Information
Bruxelles National, Belgium (EBBR) 50-54N 004-32E 58M Feb 19, 2020 - 02:50 AM EST / 2020.02.19 0750 UTC
Wind: from the W (260 degrees) at 12 MPH (10 KT):0
Visibility: greater than 7 mile(s):0
Sky conditions: mostly clear Temperature: 39 F (4 C) Dew Point: 35 F (2 C) Relative Humidity: 86% Pressure (altimeter): 30.12 in. Hg (1020 hPa)
ob: EBBR 190750Z 26010KT 9999 FEW030 04/02 Q1020 NOSIG cycle: 8
Sunrise: 06:50 Sunset: 17:01 (UTC)

Luton Airport , United Kingdom (EGGW) 51-52N 000-22W Feb 19, 2020 - 02:50 AM EST / 2020.02.19 0750 UTC
Wind: from the WSW (250 degrees) at 13 MPH (11 KT):0
Visibility: greater than 7 mile(s):0 Temperature: 37 F (3 C) Dew Point: 32 F (0 C) Relative Humidity: 80% Pressure (altimeter): 30.12 in. Hg (1020 hPa)
ob: EGGW 190750Z AUTO 25011KT 9999 NCD 03/00 Q1020 cycle: 8
Sunrise: 07:11 Sunset: 17:18 (UTC)

TAF:2020/02/19 06:09 TAF EGGW 190505Z 1906/2006 27013KT 9999 SCT025 BECMG 1911/1914 21010KT -RA BKN012 TEMPO 1911/1914 7000 TEMPO 1914/1921 3000 RA BKN006 BECMG 1916/1919 NSW BKN018 TEMPO 1919/2006 22015G25KT BKN011 PROB30 TEMPO 1919/2006 6000 RA

Previous Pireps for this route
Date Aircraft Flight time Fuel used Landing rate On time
2017-06-04B1900D1.4810840Charter
(pireps marked green are flown by you)

Route map